Time;durP1;ratioP1;P1;durP2;ratioP2;P2;SDS_P1;SDS_P2;PMS_P1;PMS_P2;Temp;Humidity;BMP_temperature;BMP_pressure;BME280_temperature;BME280_humidity;BME280_pressure;Samples;Min_cycle;Max_cycle;Signal;HPM_P1;HPM_P2
2021/03/04 00:00:34;;;;;;;268.95;55.40;;;4.90;99.90;;;;;;5060560;28;20103;-70
2021/03/04 00:03:01;;;;;;;430.25;62.60;;;5.00;99.90;;;;;;5067610;28;20492;-71
2021/03/04 00:05:27;;;;;;;495.52;68.57;;;4.90;99.90;;;;;;5063789;28;20049;-69
2021/03/04 00:07:52;;;;;;;329.13;58.50;;;4.70;99.90;;;;;;5067170;28;20039;-70
2021/03/04 00:10:20;;;;;;;436.38;64.72;;;4.70;99.90;;;;;;5070272;28;20021;-67
2021/03/04 00:12:47;;;;;;;437.42;69.22;;;4.70;99.90;;;;;;5068158;28;20102;-70
2021/03/04 00:15:15;;;;;;;347.08;61.55;;;4.80;99.90;;;;;;5066487;28;20028;-67
2021/03/04 00:17:41;;;;;;;482.88;70.63;;;4.70;99.90;;;;;;5050985;28;20055;-70
2021/03/04 00:20:09;;;;;;;304.50;59.15;;;4.70;99.90;;;;;;5069409;28;20528;-73
2021/03/04 00:22:35;;;;;;;324.80;59.50;;;4.80;99.90;;;;;;5069499;28;20082;-72
2021/03/04 00:25:03;;;;;;;376.40;63.67;;;4.60;99.90;;;;;;5066076;28;20024;-71
2021/03/04 00:27:28;;;;;;;346.38;61.15;;;4.50;99.90;;;;;;5068525;28;20033;-68
2021/03/04 00:29:55;;;;;;;318.00;59.67;;;4.50;99.90;;;;;;5067815;28;20484;-65
2021/03/04 00:32:21;;;;;;;287.75;59.05;;;4.50;99.90;;;;;;5053651;28;20077;-70
2021/03/04 00:34:46;;;;;;;245.27;53.20;;;4.40;99.90;;;;;;5067874;28;20111;-70
2021/03/04 00:37:12;;;;;;;257.63;53.25;;;4.40;99.90;;;;;;5067854;28;20047;-72
2021/03/04 00:39:37;;;;;;;211.18;50.92;;;4.50;99.90;;;;;;5067779;28;20504;-71
2021/03/04 00:42:04;;;;;;;224.05;51.70;;;4.60;99.90;;;;;;5065653;28;20031;-71
2021/03/04 00:44:29;;;;;;;238.30;53.58;;;4.50;99.90;;;;;;5054893;28;20465;-71
2021/03/04 00:46:56;;;;;;;296.00;54.65;;;4.40;99.90;;;;;;5079675;28;20039;-69
2021/03/04 00:49:22;;;;;;;224.98;48.70;;;4.50;99.90;;;;;;5055118;28;20485;-72
2021/03/04 00:51:48;;;;;;;295.77;54.72;;;4.40;99.90;;;;;;5067752;28;20044;-69
2021/03/04 00:54:13;;;;;;;318.88;55.63;;;4.50;99.90;;;;;;5069595;28;20032;-67
2021/03/04 00:56:39;;;;;;;309.75;56.42;;;4.50;99.90;;;;;;5072340;28;20036;-72
2021/03/04 00:59:04;;;;;;;313.70;57.67;;;4.40;99.90;;;;;;5041952;28;20670;-66
2021/03/04 01:01:30;;;;;;;307.45;54.28;;;4.40;99.90;;;;;;5092397;28;20023;-71
2021/03/04 01:03:56;;;;;;;367.70;60.97;;;4.50;99.90;;;;;;5076043;28;20024;-68
2021/03/04 01:06:21;;;;;;;408.05;61.72;;;4.40;99.90;;;;;;5074780;28;20051;-69
2021/03/04 01:08:48;;;;;;;483.95;66.57;;;4.40;99.90;;;;;;5080706;28;20067;-69
2021/03/04 01:11:16;;;;;;;413.55;63.40;;;4.30;99.90;;;;;;5068969;28;20098;-70
2021/03/04 01:13:44;;;;;;;381.33;62.40;;;4.40;99.90;;;;;;5079043;28;20020;-70
2021/03/04 01:16:10;;;;;;;457.70;67.28;;;4.40;99.90;;;;;;5090292;28;20028;-68
2021/03/04 01:18:36;;;;;;;356.08;60.60;;;4.40;99.90;;;;;;5084937;28;20017;-69
2021/03/04 01:21:05;;;;;;;376.80;62.22;;;4.40;99.90;;;;;;5054167;28;20123;-70
2021/03/04 01:23:31;;;;;;;515.03;67.07;;;4.50;99.90;;;;;;5070121;28;20111;-70
2021/03/04 01:25:57;;;;;;;441.17;64.22;;;4.40;99.90;;;;;;5071459;28;20043;-66
2021/03/04 01:28:24;;;;;;;455.23;64.22;;;4.50;99.90;;;;;;5047399;28;20020;-70
2021/03/04 01:30:50;;;;;;;372.90;60.67;;;4.50;99.90;;;;;;5069330;28;20526;-70
2021/03/04 01:33:16;;;;;;;405.00;62.83;;;4.60;99.90;;;;;;5087967;28;20024;-69
2021/03/04 01:35:42;;;;;;;439.60;64.90;;;4.60;99.90;;;;;;5087106;28;20020;-69
2021/03/04 01:38:07;;;;;;;383.15;59.45;;;4.50;99.90;;;;;;5084796;28;20057;-72
2021/03/04 01:40:34;;;;;;;392.77;58.15;;;4.50;99.90;;;;;;5071961;28;20027;-71
2021/03/04 01:43:00;;;;;;;453.05;63.92;;;4.50;99.90;;;;;;5061896;28;20008;-67
2021/03/04 01:45:25;;;;;;;480.08;66.43;;;4.50;99.90;;;;;;5065355;28;20098;-70
2021/03/04 01:47:54;;;;;;;397.50;62.60;;;4.50;99.90;;;;;;5080227;28;20029;-70
2021/03/04 01:50:21;;;;;;;451.00;64.55;;;4.50;99.90;;;;;;5081742;28;20114;-69
2021/03/04 01:52:47;;;;;;;491.58;67.97;;;4.50;99.90;;;;;;5070296;28;20496;-70
2021/03/04 01:55:16;;;;;;;525.60;70.90;;;4.40;99.90;;;;;;5080826;28;20305;-70
2021/03/04 01:57:43;;;;;;;519.65;71.40;;;4.40;99.90;;;;;;5080497;28;20017;-70
2021/03/04 02:00:10;;;;;;;458.73;66.97;;;4.30;99.90;;;;;;5077558;28;20032;-69
2021/03/04 02:02:36;;;;;;;365.38;61.28;;;4.40;99.90;;;;;;5074110;28;20469;-71
2021/03/04 02:05:07;;;;;;;417.33;63.55;;;4.50;99.90;;;;;;5070837;28;20074;-70
2021/03/04 02:07:41;;;;;;;313.17;57.65;;;4.60;99.90;;;;;;5068974;28;20119;-68
2021/03/04 02:10:21;;;;;;;394.55;62.38;;;4.60;99.90;;;;;;5070748;28;20029;-66
2021/03/04 02:13:02;;;;;;;281.52;54.28;;;4.50;99.90;;;;;;5073211;28;20019;-68
2021/03/04 02:15:35;;;;;;;444.77;65.43;;;4.50;99.90;;;;;;5072274;28;20025;-72
2021/03/04 02:18:04;;;;;;;324.50;58.42;;;4.40;99.90;;;;;;5069199;28;20046;-70
2021/03/04 02:20:41;;;;;;;291.52;54.70;;;4.40;99.90;;;;;;5078994;28;20032;-67
2021/03/04 02:23:22;;;;;;;264.58;52.78;;;4.40;99.90;;;;;;5090756;28;20031;-70
2021/03/04 02:26:25;;;;;;;312.35;54.85;;;4.40;99.90;;;;;;5071997;28;20035;-69
2021/03/04 02:28:54;;;;;;;296.77;52.75;;;4.50;99.90;;;;;;5066542;28;20057;-69
2021/03/04 02:31:21;;;;;;;345.20;55.00;;;4.40;99.90;;;;;;5069847;28;20098;-68
2021/03/04 02:33:48;;;;;;;440.23;59.88;;;4.40;99.90;;;;;;5070571;28;20103;-71
2021/03/04 02:36:14;;;;;;;364.08;58.10;;;4.40;99.90;;;;;;5071722;28;20047;-69
2021/03/04 02:38:40;;;;;;;414.95;60.60;;;4.40;99.90;;;;;;5068111;28;20190;-67
2021/03/04 02:41:06;;;;;;;479.92;65.00;;;4.40;99.90;;;;;;5068293;28;20027;-73
2021/03/04 02:43:33;;;;;;;378.30;59.08;;;4.40;99.90;;;;;;5070243;28;20078;-71
2021/03/04 02:46:00;;;;;;;494.42;68.30;;;4.40;99.90;;;;;;5051087;28;20334;-70
2021/03/04 02:48:27;;;;;;;418.88;62.58;;;4.40;99.90;;;;;;5051361;28;20020;-69
2021/03/04 02:50:53;;;;;;;418.58;61.83;;;4.40;99.90;;;;;;5070643;28;20012;-70
2021/03/04 02:53:21;;;;;;;439.83;65.03;;;4.30;99.90;;;;;;5069950;28;20031;-68
2021/03/04 02:55:47;;;;;;;409.05;62.13;;;4.30;99.90;;;;;;5059611;28;20804;-70
2021/03/04 02:58:14;;;;;;;330.50;57.10;;;4.20;99.90;;;;;;5060320;28;20078;-69
2021/03/04 03:00:40;;;;;;;403.83;60.92;;;4.30;99.90;;;;;;5068133;28;20021;-66
2021/03/04 03:03:09;;;;;;;352.35;57.63;;;4.30;99.90;;;;;;5037117;28;20081;-71
2021/03/04 03:05:36;;;;;;;322.02;57.17;;;4.20;99.90;;;;;;5069401;28;20044;-68
2021/03/04 03:08:03;;;;;;;284.90;52.90;;;4.20;99.90;;;;;;5070205;28;20082;-71
2021/03/04 03:10:30;;;;;;;274.10;53.92;;;4.20;99.90;;;;;;5068904;28;20032;-70
2021/03/04 03:12:57;;;;;;;368.17;59.53;;;4.20;99.90;;;;;;5081808;28;20028;-70
2021/03/04 03:15:24;;;;;;;320.42;56.35;;;4.10;99.90;;;;;;5070229;28;20104;-68
2021/03/04 03:17:50;;;;;;;309.48;56.40;;;4.20;99.90;;;;;;5061490;28;20074;-71
2021/03/04 03:20:18;;;;;;;384.05;58.42;;;4.20;99.90;;;;;;5089686;28;20028;-65
2021/03/04 03:22:44;;;;;;;384.88;59.35;;;4.20;99.90;;;;;;5089693;28;20035;-70
2021/03/04 03:25:11;;;;;;;432.95;61.80;;;4.10;99.90;;;;;;5071707;28;20035;-70
2021/03/04 03:27:38;;;;;;;358.92;57.30;;;4.20;99.90;;;;;;5069375;28;20473;-69
2021/03/04 03:30:27;;;;;;;364.98;57.50;;;4.20;99.90;;;;;;5030568;28;20033;-69
2021/03/04 03:33:06;;;;;;;323.45;54.58;;;4.20;99.90;;;;;;5062787;28;20125;-70
2021/03/04 03:35:32;;;;;;;329.67;55.78;;;4.10;99.90;;;;;;5065522;28;20115;-73
2021/03/04 03:38:01;;;;;;;323.42;55.42;;;4.10;99.90;;;;;;5089022;28;20162;-69
2021/03/04 03:40:27;;;;;;;274.92;50.65;;;4.10;99.90;;;;;;5070436;28;20416;-71
2021/03/04 03:43:00;;;;;;;347.83;56.83;;;4.10;99.90;;;;;;5075417;28;20115;-70
2021/03/04 03:45:46;;;;;;;403.30;56.17;;;4.10;99.90;;;;;;5082202;28;20020;-70
2021/03/04 03:48:14;;;;;;;332.02;54.80;;;4.10;99.90;;;;;;5072632;28;20051;-67
2021/03/04 03:50:42;;;;;;;324.98;56.25;;;4.10;99.90;;;;;;5070820;28;20032;-71
2021/03/04 03:53:12;;;;;;;344.27;56.47;;;4.10;99.90;;;;;;5068670;28;20096;-69
2021/03/04 03:55:38;;;;;;;334.40;56.13;;;4.20;99.90;;;;;;5065114;28;20023;-71
2021/03/04 03:58:04;;;;;;;288.23;51.75;;;4.20;99.90;;;;;;5068991;28;20028;-69
2021/03/04 04:00:30;;;;;;;349.55;53.42;;;4.30;99.90;;;;;;5073224;28;20020;-71
2021/03/04 04:03:02;;;;;;;388.48;57.70;;;4.40;99.90;;;;;;5068337;28;20484;-70
2021/03/04 04:05:28;;;;;;;326.52;53.85;;;4.20;99.90;;;;;;5070062;28;20044;-71
2021/03/04 04:07:55;;;;;;;339.70;55.95;;;4.20;99.90;;;;;;5069139;28;20036;-70
2021/03/04 04:10:25;;;;;;;367.98;57.30;;;4.30;99.90;;;;;;5068454;28;20025;-70
2021/03/04 04:12:51;;;;;;;344.15;52.15;;;4.20;99.90;;;;;;5061864;28;20021;-71
2021/03/04 04:15:18;;;;;;;391.67;55.47;;;4.20;99.90;;;;;;5069557;28;20016;-68
2021/03/04 04:17:43;;;;;;;422.73;58.70;;;4.10;99.90;;;;;;5071304;28;20066;-68
2021/03/04 04:20:09;;;;;;;396.08;56.83;;;4.10;99.90;;;;;;5069258;28;20057;-69
2021/03/04 04:22:35;;;;;;;319.20;51.08;;;4.20;99.90;;;;;;5079624;28;20062;-69
2021/03/04 04:25:02;;;;;;;328.42;54.03;;;4.30;99.90;;;;;;5071332;28;20025;-69
2021/03/04 04:27:28;;;;;;;286.80;50.13;;;4.30;99.90;;;;;;5075884;28;20384;-70
2021/03/04 04:29:54;;;;;;;394.92;54.40;;;4.30;99.90;;;;;;5070929;28;20029;-67
2021/03/04 04:32:19;;;;;;;371.50;55.13;;;4.40;99.90;;;;;;5067823;28;20085;-70
2021/03/04 04:34:45;;;;;;;369.52;56.78;;;4.30;99.90;;;;;;5070008;28;20534;-70
2021/03/04 04:37:10;;;;;;;485.35;62.95;;;4.40;99.90;;;;;;5063346;28;20428;-68
2021/03/04 04:39:36;;;;;;;442.85;61.63;;;4.30;99.90;;;;;;5062718;28;20039;-68
2021/03/04 04:42:01;;;;;;;404.58;55.92;;;4.30;99.90;;;;;;5047411;28;20048;-68
2021/03/04 04:44:27;;;;;;;506.67;63.00;;;4.30;99.90;;;;;;5062121;28;20524;-70
2021/03/04 04:46:52;;;;;;;360.27;55.15;;;4.10;99.90;;;;;;5080790;28;20032;-72
2021/03/04 04:49:18;;;;;;;390.83;54.72;;;4.20;99.90;;;;;;5067094;28;20016;-70
2021/03/04 04:51:44;;;;;;;399.58;58.83;;;4.20;99.90;;;;;;5049461;28;20128;-71
2021/03/04 04:54:10;;;;;;;347.65;56.42;;;4.20;99.90;;;;;;5065628;28;20118;-69
2021/03/04 04:56:35;;;;;;;365.38;54.45;;;4.20;99.90;;;;;;5057638;28;20024;-70
2021/03/04 04:59:01;;;;;;;398.77;58.28;;;4.20;99.90;;;;;;5065002;28;20025;-69
2021/03/04 05:01:26;;;;;;;359.73;51.95;;;4.20;99.90;;;;;;5056546;28;20111;-71
2021/03/04 05:03:52;;;;;;;392.88;54.67;;;4.30;99.90;;;;;;5060090;28;20089;-70
2021/03/04 05:06:19;;;;;;;391.70;55.97;;;4.20;99.90;;;;;;5065733;28;20056;-71
2021/03/04 05:08:44;;;;;;;398.33;55.08;;;4.20;99.90;;;;;;5041905;28;20044;-71
2021/03/04 05:11:11;;;;;;;380.25;56.08;;;4.20;99.90;;;;;;5064043;28;20012;-71
2021/03/04 05:13:37;;;;;;;470.95;63.67;;;4.30;99.90;;;;;;5045660;28;20393;-71
2021/03/04 05:16:02;;;;;;;454.73;61.13;;;4.30;99.90;;;;;;5063228;28;20024;-70
2021/03/04 05:18:28;;;;;;;485.98;63.55;;;4.20;99.90;;;;;;5065323;28;20025;-70
2021/03/04 05:20:53;;;;;;;546.38;67.72;;;4.20;99.90;;;;;;5066877;28;20032;-71
2021/03/04 05:23:19;;;;;;;513.72;66.57;;;4.20;99.90;;;;;;5063965;28;20401;-71
2021/03/04 05:25:45;;;;;;;507.25;64.45;;;4.20;99.90;;;;;;5062568;28;20032;-71
2021/03/04 05:28:11;;;;;;;482.42;60.63;;;4.20;99.90;;;;;;5064729;28;20242;-70
2021/03/04 05:30:36;;;;;;;504.27;64.65;;;4.20;99.90;;;;;;5053930;28;20111;-71
2021/03/04 05:33:02;;;;;;;408.70;59.00;;;4.30;99.90;;;;;;5066722;28;20021;-66
2021/03/04 05:35:28;;;;;;;493.52;60.53;;;4.30;99.90;;;;;;5067271;28;20073;-71
2021/03/04 05:37:53;;;;;;;508.10;66.35;;;4.30;99.90;;;;;;5074654;28;20138;-66
2021/03/04 05:40:20;;;;;;;445.73;60.55;;;4.30;99.90;;;;;;5066963;28;20456;-70
2021/03/04 05:42:46;;;;;;;455.75;61.33;;;4.30;99.90;;;;;;5078282;28;20080;-72
2021/03/04 05:45:13;;;;;;;562.28;70.55;;;4.30;99.90;;;;;;5071094;28;20666;-72
2021/03/04 05:47:41;;;;;;;512.03;67.00;;;4.30;99.90;;;;;;5060902;28;20032;-69
2021/03/04 05:50:09;;;;;;;475.45;62.15;;;4.20;99.90;;;;;;5070902;28;20066;-69
2021/03/04 05:52:38;;;;;;;465.10;65.00;;;4.30;99.90;;;;;;5069737;28;20028;-71
2021/03/04 05:55:05;;;;;;;499.17;68.43;;;4.30;99.90;;;;;;5076835;28;20028;-69
2021/03/04 05:57:31;;;;;;;473.67;63.30;;;4.30;99.90;;;;;;5087847;28;20032;-68
2021/03/04 05:59:57;;;;;;;522.67;66.93;;;4.30;99.90;;;;;;5080059;28;20021;-68
2021/03/04 06:02:24;;;;;;;431.98;61.85;;;4.30;99.90;;;;;;5073027;28;20013;-69
2021/03/04 06:04:50;;;;;;;438.70;65.25;;;4.30;99.90;;;;;;5074919;28;20043;-68
2021/03/04 06:07:17;;;;;;;466.42;69.55;;;4.30;99.90;;;;;;5058132;28;20129;-70
2021/03/04 06:09:43;;;;;;;490.52;69.97;;;4.30;99.90;;;;;;5054255;28;20536;-73
2021/03/04 06:12:10;;;;;;;429.80;64.38;;;4.20;99.90;;;;;;5070037;28;20053;-72
2021/03/04 06:14:37;;;;;;;480.65;65.05;;;4.20;99.90;;;;;;5064257;28;20032;-70
2021/03/04 06:17:16;;;;;;;482.88;68.60;;;4.20;99.90;;;;;;5068065;28;20638;-73
2021/03/04 06:19:58;;;;;;;421.88;61.63;;;4.20;99.90;;;;;;5067055;28;20027;-71
2021/03/04 06:22:35;;;;;;;357.90;63.13;;;4.20;99.90;;;;;;5060530;28;21419;-71
2021/03/04 06:25:10;;;;;;;402.90;62.42;;;4.30;99.90;;;;;;5064128;28;20025;-71
2021/03/04 06:27:40;;;;;;;429.15;63.80;;;4.30;99.90;;;;;;5062113;28;20052;-71
2021/03/04 06:30:11;;;;;;;347.92;61.63;;;4.30;99.90;;;;;;5066100;28;20061;-71
2021/03/04 06:32:40;;;;;;;401.80;62.78;;;4.40;99.90;;;;;;5070300;28;20032;-72
2021/03/04 06:35:13;;;;;;;401.80;63.88;;;4.20;99.90;;;;;;5057381;28;20684;-72
2021/03/04 06:37:41;;;;;;;311.35;53.35;;;4.10;99.90;;;;;;5056726;28;20017;-68
2021/03/04 06:40:23;;;;;;;339.27;57.92;;;4.20;99.90;;;;;;5061692;28;20028;-72
2021/03/04 06:42:50;;;;;;;333.25;54.72;;;4.20;99.90;;;;;;5046788;28;20016;-74
2021/03/04 06:45:34;;;;;;;333.88;57.03;;;4.20;99.90;;;;;;5066115;28;20547;-68
2021/03/04 06:48:24;;;;;;;310.95;55.17;;;4.20;99.90;;;;;;5069986;28;20071;-70
2021/03/04 06:51:00;;;;;;;321.83;56.50;;;4.30;99.90;;;;;;5066361;28;20051;-72
2021/03/04 06:53:27;;;;;;;317.95;53.75;;;4.30;99.90;;;;;;5078856;28;20020;-70
2021/03/04 06:56:06;;;;;;;294.63;52.10;;;4.20;99.90;;;;;;5065877;28;20023;-71
2021/03/04 06:58:32;;;;;;;326.60;56.60;;;4.20;99.90;;;;;;5072338;28;20021;-71
2021/03/04 07:01:02;;;;;;;322.48;53.47;;;4.20;99.90;;;;;;5071372;28;20028;-70
2021/03/04 07:03:35;;;;;;;302.40;53.85;;;4.20;99.90;;;;;;5068638;28;20354;-71
2021/03/04 07:06:04;;;;;;;285.90;53.97;;;4.20;99.90;;;;;;5052991;28;20099;-70
2021/03/04 07:08:34;;;;;;;268.60;52.47;;;4.10;99.90;;;;;;5041252;28;20053;-70
2021/03/04 07:11:02;;;;;;;282.13;57.08;;;4.20;99.90;;;;;;5053557;28;20025;-73
2021/03/04 07:13:30;;;;;;;288.35;54.58;;;4.30;99.90;;;;;;5058842;28;20029;-71
2021/03/04 07:15:57;;;;;;;326.38;58.33;;;4.30;99.90;;;;;;5041967;28;20473;-69
2021/03/04 07:18:24;;;;;;;331.33;58.85;;;4.10;99.90;;;;;;5077043;28;20021;-70
2021/03/04 07:20:50;;;;;;;311.35;60.20;;;4.10;99.90;;;;;;5082404;28;20024;-72
2021/03/04 07:23:16;;;;;;;330.08;62.03;;;4.20;99.90;;;;;;5076236;28;20025;-70
2021/03/04 07:25:42;;;;;;;352.73;64.28;;;4.20;99.90;;;;;;5080220;28;20024;-72
2021/03/04 07:28:11;;;;;;;331.02;62.42;;;4.20;99.90;;;;;;5076495;28;20466;-70
2021/03/04 07:30:37;;;;;;;299.13;58.83;;;4.10;99.90;;;;;;5058569;28;20028;-70
2021/03/04 07:33:03;;;;;;;318.02;61.78;;;4.20;99.90;;;;;;5059473;28;20142;-72
2021/03/04 07:35:30;;;;;;;308.45;64.95;;;4.30;99.90;;;;;;5067192;28;20442;-73
2021/03/04 07:37:56;;;;;;;294.38;63.08;;;4.20;99.90;;;;;;5067537;28;20134;-70
2021/03/04 07:40:22;;;;;;;282.67;60.75;;;4.20;99.90;;;;;;5070692;28;20024;-70
2021/03/04 07:42:48;;;;;;;281.83;63.08;;;4.20;99.90;;;;;;5065330;28;20036;-71
2021/03/04 07:45:15;;;;;;;281.45;64.93;;;4.20;99.90;;;;;;5074153;28;20052;-72
2021/03/04 07:47:41;;;;;;;282.10;59.95;;;4.30;99.90;;;;;;5056484;28;20039;-72
2021/03/04 07:50:33;;;;;;;269.55;57.08;;;4.30;99.90;;;;;;5078373;28;20024;-71
2021/03/04 07:53:04;;;;;;;303.87;60.67;;;4.30;99.90;;;;;;5071801;28;20160;-71
2021/03/04 07:55:38;;;;;;;276.88;61.65;;;4.20;99.90;;;;;;5076726;28;20013;-73
2021/03/04 07:58:15;;;;;;;272.65;56.42;;;4.20;99.90;;;;;;5076696;28;20765;-71
2021/03/04 08:00:41;;;;;;;264.90;58.75;;;4.30;99.90;;;;;;5086182;28;20068;-75
2021/03/04 08:03:06;;;;;;;276.63;59.97;;;4.40;99.90;;;;;;5086056;28;20028;-71
2021/03/04 08:05:37;;;;;;;267.88;59.97;;;4.30;99.90;;;;;;5065206;28;20044;-72
2021/03/04 08:08:15;;;;;;;251.25;57.33;;;4.30;99.90;;;;;;5075286;28;20025;-72
2021/03/04 08:10:56;;;;;;;233.13;55.00;;;4.40;99.90;;;;;;5064489;28;20107;-71
2021/03/04 08:13:32;;;;;;;198.57;50.30;;;4.50;99.90;;;;;;5063566;28;20488;-71
2021/03/04 08:15:58;;;;;;;196.60;50.78;;;4.40;99.90;;;;;;5068204;28;20274;-74
2021/03/04 08:18:26;;;;;;;231.25;58.22;;;4.40;99.90;;;;;;5048382;28;20053;-71
2021/03/04 08:20:53;;;;;;;232.93;55.83;;;4.40;99.90;;;;;;5066661;28;20016;-72
2021/03/04 08:23:20;;;;;;;216.85;53.08;;;4.30;99.90;;;;;;5069336;28;20476;-71
2021/03/04 08:25:47;;;;;;;212.48;49.25;;;4.40;99.90;;;;;;5050880;28;20066;-70
2021/03/04 08:28:26;;;;;;;192.13;47.20;;;4.40;99.90;;;;;;5078487;28;20039;-72
2021/03/04 08:30:52;;;;;;;190.50;45.03;;;4.50;99.90;;;;;;5089874;28;20067;-72
2021/03/04 08:33:21;;;;;;;176.35;45.03;;;4.50;99.90;;;;;;5067689;28;20060;-74
2021/03/04 08:35:49;;;;;;;182.25;45.88;;;4.40;99.90;;;;;;5082919;28;20067;-71
2021/03/04 08:38:18;;;;;;;201.38;48.25;;;4.40;99.90;;;;;;5084436;28;20036;-71
2021/03/04 08:40:51;;;;;;;189.00;42.95;;;4.40;99.90;;;;;;5069871;28;20236;-70
2021/03/04 08:43:28;;;;;;;181.70;41.60;;;4.40;99.90;;;;;;5080625;28;20048;-70
2021/03/04 08:45:58;;;;;;;162.57;40.05;;;4.40;99.90;;;;;;5063949;28;20525;-70
2021/03/04 08:48:24;;;;;;;164.43;38.88;;;4.30;99.90;;;;;;5080682;28;20447;-71
2021/03/04 08:50:52;;;;;;;162.93;38.10;;;4.30;99.90;;;;;;5058126;28;20115;-72
2021/03/04 08:53:26;;;;;;;188.02;43.42;;;4.30;99.90;;;;;;5061141;28;20070;-73
2021/03/04 08:55:57;;;;;;;167.48;41.15;;;4.30;99.90;;;;;;5061797;28;20101;-69
2021/03/04 08:58:24;;;;;;;183.02;41.50;;;4.30;99.90;;;;;;5060481;28;20029;-73
2021/03/04 09:01:01;;;;;;;186.35;43.78;;;4.30;99.90;;;;;;5056907;28;20048;-71
2021/03/04 09:03:49;;;;;;;199.88;44.65;;;4.30;99.90;;;;;;5064857;28;20020;-74
2021/03/04 09:06:16;;;;;;;196.65;46.03;;;4.20;99.90;;;;;;5029883;28;20044;-70
2021/03/04 09:08:46;;;;;;;196.05;43.92;;;4.20;99.90;;;;;;5068362;28;20078;-71
2021/03/04 09:11:33;;;;;;;199.25;43.42;;;4.20;99.90;;;;;;5070735;28;20037;-73
2021/03/04 09:14:09;;;;;;;204.13;43.25;;;4.20;99.90;;;;;;5064918;28;20024;-73
2021/03/04 09:16:43;;;;;;;184.60;40.53;;;4.30;99.90;;;;;;5066329;28;20039;-74
2021/03/04 09:19:09;;;;;;;188.30;42.58;;;4.30;99.90;;;;;;5077227;28;20155;-72
2021/03/04 09:21:35;;;;;;;180.80;42.47;;;4.30;99.90;;;;;;5059713;28;20029;-70
2021/03/04 09:24:01;;;;;;;179.90;40.97;;;4.30;99.90;;;;;;5065604;28;20028;-71
2021/03/04 09:26:31;;;;;;;202.32;43.63;;;4.40;99.90;;;;;;5070149;28;20017;-72
2021/03/04 09:28:57;;;;;;;175.82;40.08;;;4.40;99.90;;;;;;5071441;28;20012;-72
2021/03/04 09:31:25;;;;;;;193.85;43.10;;;4.50;99.90;;;;;;5064912;28;20484;-71
2021/03/04 09:34:03;;;;;;;179.70;40.50;;;4.50;99.90;;;;;;5053092;28;20025;-72
2021/03/04 09:36:29;;;;;;;173.48;41.00;;;4.40;99.90;;;;;;5067797;28;20551;-72
2021/03/04 09:38:56;;;;;;;177.55;42.38;;;4.50;99.90;;;;;;5072359;28;20056;-73
2021/03/04 09:41:24;;;;;;;189.40;42.47;;;4.40;99.90;;;;;;5071430;28;20070;-74
2021/03/04 09:43:55;;;;;;;182.65;40.90;;;4.40;99.90;;;;;;5072091;28;20021;-71
2021/03/04 09:46:27;;;;;;;187.68;43.95;;;4.40;99.90;;;;;;5070839;28;20112;-70
2021/03/04 09:48:53;;;;;;;203.30;43.33;;;4.40;99.90;;;;;;5073509;28;20070;-70
2021/03/04 09:51:19;;;;;;;207.55;44.97;;;4.40;99.90;;;;;;5056790;28;20028;-70
2021/03/04 09:53:48;;;;;;;199.30;44.08;;;4.40;99.90;;;;;;5073954;28;20108;-69
2021/03/04 09:56:21;;;;;;;224.35;43.58;;;4.30;99.90;;;;;;5064884;28;20029;-74
2021/03/04 09:58:47;;;;;;;195.88;44.03;;;4.30;99.90;;;;;;5052470;28;20108;-71
2021/03/04 10:01:12;;;;;;;180.48;40.50;;;4.30;99.90;;;;;;5077768;28;20038;-74
2021/03/04 10:03:39;;;;;;;187.55;39.13;;;4.30;99.90;;;;;;5076138;28;20115;-71
2021/03/04 10:06:06;;;;;;;195.85;43.17;;;4.50;99.90;;;;;;5054537;28;20180;-73
2021/03/04 10:08:39;;;;;;;190.50;40.00;;;4.50;99.90;;;;;;5081480;28;20016;-74
2021/03/04 10:11:05;;;;;;;194.85;40.05;;;4.50;99.90;;;;;;5075508;28;20386;-73
2021/03/04 10:13:32;;;;;;;179.85;39.25;;;4.50;99.90;;;;;;5070334;28;20070;-69
2021/03/04 10:16:11;;;;;;;198.63;43.25;;;4.60;99.90;;;;;;5069922;28;20099;-73
2021/03/04 10:18:37;;;;;;;202.98;42.20;;;4.60;99.90;;;;;;5055027;28;20028;-74
2021/03/04 10:21:04;;;;;;;194.30;40.05;;;4.50;99.90;;;;;;5080109;28;20020;-70
2021/03/04 10:23:31;;;;;;;205.38;40.63;;;4.50;99.90;;;;;;5056876;28;20025;-73
2021/03/04 10:25:56;;;;;;;211.02;40.67;;;4.40;99.90;;;;;;5029017;28;20464;-72
2021/03/04 10:28:24;;;;;;;194.95;39.08;;;4.50;99.90;;;;;;5077073;28;20085;-72
2021/03/04 10:30:50;;;;;;;181.38;38.20;;;4.50;99.90;;;;;;5090218;28;20503;-73
2021/03/04 10:33:16;;;;;;;213.32;42.35;;;4.50;99.90;;;;;;5069316;28;20021;-72
2021/03/04 10:35:43;;;;;;;194.23;40.80;;;4.50;99.90;;;;;;5054594;28;20036;-71
2021/03/04 10:38:08;;;;;;;212.50;40.25;;;4.40;99.90;;;;;;5071073;28;20036;-70
2021/03/04 10:40:34;;;;;;;220.40;41.40;;;4.40;99.90;;;;;;5051484;28;20100;-73
2021/03/04 10:42:59;;;;;;;197.07;38.72;;;4.50;99.90;;;;;;5050351;28;20040;-72
2021/03/04 10:45:25;;;;;;;203.23;40.45;;;4.60;99.90;;;;;;5063602;28;20078;-73
2021/03/04 10:47:51;;;;;;;208.93;41.38;;;4.60;99.90;;;;;;5070327;28;20029;-70
2021/03/04 10:50:20;;;;;;;213.73;43.85;;;4.60;99.90;;;;;;5061494;28;20525;-71
2021/03/04 10:52:45;;;;;;;197.27;38.55;;;4.50;99.90;;;;;;5064005;28;20090;-72
2021/03/04 10:55:15;;;;;;;178.18;36.83;;;4.50;99.90;;;;;;5077837;28;20020;-71
2021/03/04 10:57:40;;;;;;;195.30;37.90;;;4.60;99.90;;;;;;5070156;28;20027;-71
2021/03/04 11:00:13;;;;;;;183.55;37.85;;;4.70;99.90;;;;;;5068263;28;20025;-71
2021/03/04 11:02:38;;;;;;;192.40;38.85;;;4.70;99.90;;;;;;5066405;28;20030;-72
2021/03/04 11:05:06;;;;;;;183.55;39.55;;;4.70;99.90;;;;;;5074434;28;20036;-71
2021/03/04 11:07:33;;;;;;;181.10;39.53;;;4.70;99.90;;;;;;5069562;28;20032;-72
2021/03/04 11:09:59;;;;;;;162.77;34.08;;;4.60;99.90;;;;;;5056830;28;20025;-70
2021/03/04 11:12:25;;;;;;;146.95;33.85;;;4.60;99.90;;;;;;5080209;28;20456;-74
2021/03/04 11:14:51;;;;;;;181.90;37.40;;;4.70;99.90;;;;;;5062456;28;20042;-76
2021/03/04 11:17:16;;;;;;;147.73;33.83;;;4.80;99.90;;;;;;5074605;28;20029;-71
2021/03/04 11:19:42;;;;;;;174.98;40.55;;;4.80;99.90;;;;;;5085017;28;20023;-71
2021/03/04 11:22:08;;;;;;;168.73;38.15;;;4.80;99.90;;;;;;5080285;28;20052;-72
2021/03/04 11:24:34;;;;;;;145.98;34.85;;;4.70;99.90;;;;;;5056395;28;20027;-74
2021/03/04 11:27:00;;;;;;;161.98;34.90;;;4.80;99.90;;;;;;5082180;28;20036;-71
2021/03/04 11:29:25;;;;;;;159.20;35.25;;;4.90;99.90;;;;;;5065309;28;20025;-73
2021/03/04 11:31:51;;;;;;;135.50;34.05;;;4.90;99.90;;;;;;5081152;28;20031;-71
2021/03/04 11:34:16;;;;;;;162.50;35.88;;;5.00;99.90;;;;;;5073792;28;20021;-71
2021/03/04 11:36:42;;;;;;;168.40;39.50;;;4.90;99.90;;;;;;5064013;28;20123;-70
2021/03/04 11:39:08;;;;;;;140.80;34.90;;;4.80;99.90;;;;;;5060573;28;20024;-71
2021/03/04 11:41:33;;;;;;;121.82;33.35;;;4.70;99.90;;;;;;5077523;28;20099;-69
2021/03/04 11:43:59;;;;;;;134.40;33.03;;;4.80;99.90;;;;;;5075205;28;20020;-73
2021/03/04 11:46:25;;;;;;;107.05;28.23;;;4.90;99.90;;;;;;5076004;28;20504;-72
2021/03/04 11:48:52;;;;;;;103.35;27.15;;;4.90;99.90;;;;;;5071910;28;20020;-71
2021/03/04 11:51:18;;;;;;;112.22;30.98;;;5.00;99.90;;;;;;5069466;28;20021;-71
2021/03/04 11:53:44;;;;;;;109.97;29.60;;;5.00;99.90;;;;;;5069673;28;20024;-73
2021/03/04 11:56:10;;;;;;;101.55;28.35;;;4.90;99.90;;;;;;5069728;28;20484;-70
2021/03/04 11:58:36;;;;;;;103.22;28.42;;;4.80;99.90;;;;;;5070208;28;20329;-71
2021/03/04 12:01:02;;;;;;;102.65;28.60;;;4.80;99.90;;;;;;5072157;28;20016;-71
2021/03/04 12:03:27;;;;;;;92.45;27.48;;;4.90;99.90;;;;;;5072368;28;20104;-72
2021/03/04 12:05:53;;;;;;;78.95;25.67;;;4.90;99.90;;;;;;5071823;28;20546;-69
2021/03/04 12:08:19;;;;;;;75.00;24.83;;;5.00;99.90;;;;;;5067328;28;20025;-75
2021/03/04 12:10:45;;;;;;;62.10;21.95;;;5.00;99.90;;;;;;5067870;28;20050;-73
2021/03/04 12:13:11;;;;;;;54.58;18.63;;;5.00;99.90;;;;;;5075743;28;20043;-74
2021/03/04 12:15:39;;;;;;;54.83;18.65;;;5.00;99.90;;;;;;5067292;28;20021;-71
2021/03/04 12:18:05;;;;;;;56.97;19.95;;;5.00;99.90;;;;;;5072470;28;20056;-71
2021/03/04 12:20:31;;;;;;;54.47;18.23;;;5.00;99.90;;;;;;5076425;28;20059;-68
2021/03/04 12:22:57;;;;;;;42.88;17.65;;;5.00;99.90;;;;;;5078884;28;20059;-73
2021/03/04 12:25:22;;;;;;;45.10;17.63;;;5.00;99.90;;;;;;5070999;28;20020;-73
2021/03/04 12:27:48;;;;;;;38.15;17.90;;;4.70;99.90;;;;;;5080164;28;20028;-73
2021/03/04 12:30:16;;;;;;;40.75;14.90;;;4.70;99.90;;;;;;5073726;28;20020;-70
2021/03/04 12:32:43;;;;;;;38.40;14.93;;;4.70;99.90;;;;;;5074355;28;20042;-69